createdAt,value
2023-10-17T00:01:14.882Z,7.10
2023-10-17T00:03:44.920Z,6.47
2023-10-17T00:06:18.146Z,6.57
2023-10-17T00:08:52.293Z,6.40
2023-10-17T00:11:23.806Z,7.20
2023-10-17T00:14:09.447Z,7.07
2023-10-17T00:16:39.388Z,7.43
2023-10-17T00:19:10.871Z,7.03
2023-10-17T00:21:40.802Z,7.30
2023-10-17T00:24:10.933Z,8.07
2023-10-17T00:26:40.365Z,7.90
2023-10-17T00:29:10.150Z,7.87
2023-10-17T00:31:39.910Z,8.37
2023-10-17T00:34:16.023Z,8.80
2023-10-17T00:36:50.716Z,8.97
2023-10-17T00:39:30.538Z,9.40
2023-10-17T00:42:16.586Z,10.30
2023-10-17T00:44:45.502Z,11.97
2023-10-17T00:47:19.979Z,12.53
2023-10-17T00:49:50.746Z,13.73
2023-10-17T00:52:25.493Z,12.53
2023-10-17T00:54:55.917Z,14.53
2023-10-17T00:57:27.947Z,15.23
2023-10-17T00:59:57.138Z,16.47
2023-10-17T01:02:31.473Z,16.23
2023-10-17T01:05:01.815Z,17.50
2023-10-17T01:07:31.685Z,18.10
2023-10-17T01:10:11.446Z,18.27
2023-10-17T01:12:54.313Z,19.87
2023-10-17T01:15:23.617Z,20.00
2023-10-17T01:17:55.853Z,19.97
2023-10-17T01:20:24.593Z,22.87
2023-10-17T01:22:57.345Z,21.57
2023-10-17T01:25:27.956Z,23.17
2023-10-17T01:27:58.244Z,23.07
2023-10-17T01:30:31.179Z,23.30
2023-10-17T01:32:59.799Z,24.37
2023-10-17T01:35:28.516Z,24.20
2023-10-17T01:37:58.803Z,24.53
2023-10-17T01:40:28.833Z,26.03
2023-10-17T01:42:59.170Z,24.87
2023-10-17T01:45:30.793Z,24.77
2023-10-17T01:47:59.535Z,26.30
2023-10-17T01:50:28.017Z,27.93
2023-10-17T01:52:59.546Z,26.90
2023-10-17T01:55:29.846Z,28.17
2023-10-17T01:57:59.898Z,28.83
2023-10-17T02:00:39.063Z,27.53
2023-10-17T02:03:08.561Z,26.70
2023-10-17T02:05:37.353Z,26.43
2023-10-17T02:08:07.215Z,26.50
2023-10-17T02:10:38.380Z,25.47
2023-10-17T02:13:08.121Z,23.70
2023-10-17T02:15:39.295Z,24.00
2023-10-17T02:18:14.248Z,22.33
2023-10-17T02:20:48.859Z,21.20
2023-10-17T02:23:20.958Z,20.90
2023-10-17T02:25:51.394Z,20.70
2023-10-17T02:28:19.520Z,20.30
2023-10-17T02:30:47.647Z,20.63
2023-10-17T02:33:19.299Z,20.00
2023-10-17T02:36:07.334Z,19.37
2023-10-17T02:38:35.487Z,18.13
2023-10-17T02:41:07.329Z,18.43
2023-10-17T02:43:38.541Z,17.80
2023-10-17T02:46:06.986Z,18.27
2023-10-17T02:48:40.314Z,17.47
2023-10-17T02:51:32.123Z,18.93
2023-10-17T02:54:04.225Z,18.13
2023-10-17T02:56:37.185Z,18.67
2023-10-17T02:59:07.599Z,18.93
2023-10-17T03:01:38.496Z,18.30
2023-10-17T03:04:11.256Z,18.70
2023-10-17T03:06:40.260Z,18.93
2023-10-17T03:09:34.048Z,18.50
2023-10-17T03:12:11.139Z,18.93
2023-10-17T03:14:50.855Z,17.80
2023-10-17T03:17:17.972Z,18.40
2023-10-17T03:19:46.160Z,18.73
2023-10-17T03:22:20.593Z,19.20
2023-10-17T03:24:49.390Z,19.57
2023-10-17T03:27:28.557Z,20.20
2023-10-17T03:29:56.732Z,19.83
2023-10-17T03:32:24.858Z,19.83
2023-10-17T03:34:58.171Z,19.67
2023-10-17T03:37:29.335Z,18.00
2023-10-17T03:39:59.239Z,18.87
2023-10-17T03:42:45.327Z,18.40
2023-10-17T03:45:17.612Z,17.77
2023-10-17T03:47:49.342Z,19.20
2023-10-17T03:50:32.989Z,18.03
2023-10-17T03:53:08.952Z,18.27
2023-10-17T03:55:37.768Z,19.00
2023-10-17T03:58:20.052Z,18.23
2023-10-17T04:00:48.392Z,18.50
2023-10-17T04:03:22.446Z,19.63
2023-10-17T04:05:52.204Z,18.50
2023-10-17T04:08:27.741Z,18.57
2023-10-17T04:11:10.019Z,18.93
2023-10-17T04:13:39.726Z,19.00
2023-10-17T04:16:11.627Z,18.00
2023-10-17T04:18:40.218Z,18.77
2023-10-17T04:21:19.362Z,18.63
2023-10-17T04:23:50.919Z,17.73
2023-10-17T04:26:20.814Z,17.70
2023-10-17T04:28:51.455Z,17.80
2023-10-17T04:31:26.730Z,17.67
2023-10-17T04:34:06.897Z,19.00
2023-10-17T04:36:38.988Z,17.10
2023-10-17T04:39:19.377Z,16.07
2023-10-17T04:42:11.664Z,17.10
2023-10-17T04:44:41.171Z,16.53
2023-10-17T04:47:26.939Z,15.70
2023-10-17T04:49:54.569Z,15.17
2023-10-17T04:52:30.314Z,15.67
2023-10-17T04:55:11.140Z,15.23
2023-10-17T04:57:58.694Z,14.87
2023-10-17T05:00:44.977Z,15.40
2023-10-17T05:03:15.785Z,14.80
2023-10-17T05:06:02.106Z,14.40
2023-10-17T05:08:50.467Z,14.50
2023-10-17T05:11:36.048Z,13.70
2023-10-17T05:14:21.711Z,14.37
2023-10-17T05:17:10.019Z,14.43
2023-10-17T05:19:55.569Z,13.63
2023-10-17T05:22:41.286Z,14.20
2023-10-17T05:25:27.213Z,13.33
2023-10-17T05:28:12.931Z,12.93
2023-10-17T05:30:58.466Z,13.53
2023-10-17T05:33:44.999Z,12.57
2023-10-17T05:36:30.883Z,12.13
2023-10-17T05:39:16.520Z,12.83
2023-10-17T05:42:02.154Z,12.67
2023-10-17T05:44:47.761Z,12.27
2023-10-17T05:47:33.262Z,12.70
2023-10-17T05:50:20.121Z,11.63
2023-10-17T05:53:05.656Z,12.40
2023-10-17T05:55:47.634Z,11.97
2023-10-17T05:58:33.230Z,12.40
2023-10-17T06:01:22.323Z,12.40
2023-10-17T06:04:08.329Z,12.67
2023-10-17T06:06:55.459Z,12.30
2023-10-17T06:09:40.923Z,11.53
2023-10-17T06:12:28.978Z,11.90
2023-10-17T06:15:14.896Z,11.73
2023-10-17T06:17:43.854Z,11.27
2023-10-17T06:20:13.808Z,11.73
2023-10-17T06:23:05.885Z,10.90
2023-10-17T06:25:57.895Z,11.37
2023-10-17T06:28:30.572Z,9.90
2023-10-17T06:31:27.644Z,10.30
2023-10-17T06:33:57.946Z,11.10
2023-10-17T06:36:26.688Z,10.50
2023-10-17T06:38:57.532Z,9.83
2023-10-17T06:41:39.176Z,9.13
2023-10-17T06:44:07.847Z,9.50
2023-10-17T06:46:49.256Z,9.83
2023-10-17T06:49:31.509Z,9.17
2023-10-17T06:52:11.624Z,9.17
2023-10-17T06:54:43.041Z,9.23
2023-10-17T06:57:20.256Z,10.03
2023-10-17T06:59:51.910Z,9.63
2023-10-17T07:02:29.255Z,8.90
2023-10-17T07:05:01.225Z,8.40
2023-10-17T07:07:33.389Z,8.87
2023-10-17T07:10:17.797Z,8.20
2023-10-17T07:12:51.596Z,8.63
2023-10-17T07:15:20.789Z,9.03
2023-10-17T07:17:55.530Z,8.33
2023-10-17T07:20:51.028Z,8.60
2023-10-17T07:23:20.716Z,8.57
2023-10-17T07:25:51.585Z,8.23
2023-10-17T07:28:23.666Z,7.30
2023-10-17T07:30:59.207Z,8.53
2023-10-17T07:33:27.547Z,8.23
2023-10-17T07:35:57.903Z,8.20
2023-10-17T07:38:29.214Z,7.80
2023-10-17T07:41:02.986Z,8.13
2023-10-17T07:43:34.186Z,7.93
2023-10-17T07:46:07.637Z,7.27
2023-10-17T07:48:36.423Z,7.83
2023-10-17T07:51:06.606Z,8.10
2023-10-17T07:53:34.678Z,7.37
2023-10-17T07:56:13.405Z,7.30
2023-10-17T07:58:43.514Z,7.83
2023-10-17T08:01:16.703Z,7.17
2023-10-17T08:03:55.883Z,6.70
2023-10-17T08:06:30.404Z,6.43
2023-10-17T08:09:00.661Z,6.77
2023-10-17T08:11:32.902Z,6.27
2023-10-17T08:14:06.700Z,6.23
2023-10-17T08:16:35.080Z,6.13
2023-10-17T08:19:15.986Z,6.00
2023-10-17T08:22:01.557Z,5.70
2023-10-17T08:24:34.930Z,5.53
2023-10-17T08:27:40.014Z,5.90
2023-10-17T08:30:23.788Z,5.60
2023-10-17T08:33:13.305Z,5.30
2023-10-17T08:35:40.845Z,5.07
2023-10-17T08:38:11.887Z,5.67
2023-10-17T08:40:41.941Z,5.47
2023-10-17T08:43:15.955Z,5.00
2023-10-17T08:45:47.445Z,5.20
2023-10-17T08:48:16.666Z,4.63
2023-10-17T08:50:45.064Z,4.67
2023-10-17T08:53:21.496Z,5.20
2023-10-17T08:55:51.901Z,4.70
2023-10-17T08:58:26.366Z,4.30
2023-10-17T09:00:57.681Z,4.30
2023-10-17T09:03:32.809Z,4.23
2023-10-17T09:06:15.964Z,3.93
2023-10-17T09:08:53.505Z,4.20
2023-10-17T09:11:31.947Z,4.17
2023-10-17T09:14:16.745Z,4.17
2023-10-17T09:16:51.948Z,3.87
2023-10-17T09:19:22.781Z,4.10
2023-10-17T09:21:51.353Z,3.80
2023-10-17T09:24:33.833Z,4.00
2023-10-17T09:27:07.339Z,4.23
2023-10-17T09:29:50.389Z,4.17
2023-10-17T09:32:35.313Z,4.53
2023-10-17T09:35:15.060Z,4.10
2023-10-17T09:37:44.780Z,4.30
2023-10-17T09:40:14.540Z,4.20
2023-10-17T09:42:45.742Z,4.20
2023-10-17T09:45:32.511Z,4.03
2023-10-17T09:48:05.923Z,4.30
2023-10-17T09:50:36.889Z,4.97
2023-10-17T09:53:13.538Z,4.17
2023-10-17T09:55:48.165Z,4.40
2023-10-17T09:58:19.777Z,3.90
2023-10-17T10:00:53.771Z,4.00
2023-10-17T10:03:23.523Z,3.80
2023-10-17T10:05:55.712Z,4.10
2023-10-17T10:08:33.669Z,4.07
2023-10-17T10:11:02.195Z,3.57
2023-10-17T10:13:32.536Z,3.70
2023-10-17T10:16:03.734Z,3.20
2023-10-17T10:18:53.421Z,3.30
2023-10-17T10:21:24.344Z,3.40
2023-10-17T10:23:56.233Z,3.30
2023-10-17T10:26:25.759Z,3.57
2023-10-17T10:28:53.841Z,3.30
2023-10-17T10:31:41.714Z,3.10
2023-10-17T10:34:10.259Z,3.37
2023-10-17T10:36:40.376Z,3.47
2023-10-17T10:39:14.511Z,3.53
2023-10-17T10:42:00.873Z,3.40
2023-10-17T10:44:29.171Z,3.17
2023-10-17T10:46:59.001Z,3.47
2023-10-17T10:49:28.673Z,2.87
2023-10-17T10:51:59.280Z,3.07
2023-10-17T10:54:28.872Z,3.00
2023-10-17T10:56:57.235Z,3.00
2023-10-17T10:59:25.718Z,2.90
2023-10-17T11:01:53.851Z,3.03
2023-10-17T11:04:23.442Z,3.10
2023-10-17T11:06:52.326Z,2.80
2023-10-17T11:09:25.369Z,2.55
2023-10-17T11:11:54.958Z,2.53
2023-10-17T11:14:24.068Z,2.97
2023-10-17T11:16:53.207Z,2.70
2023-10-17T11:19:23.438Z,2.40
2023-10-17T11:22:00.788Z,2.72
2023-10-17T11:24:29.385Z,2.97
2023-10-17T11:26:57.892Z,2.92
2023-10-17T11:29:28.250Z,2.60
2023-10-17T11:32:00.428Z,2.92
2023-10-17T11:34:36.182Z,2.25
2023-10-17T11:37:12.510Z,2.80
2023-10-17T11:39:41.958Z,3.20
2023-10-17T11:42:10.253Z,3.30
2023-10-17T11:44:48.847Z,3.00
2023-10-17T11:47:24.545Z,2.17
2023-10-17T11:49:57.343Z,3.10
2023-10-17T11:52:28.088Z,2.53
2023-10-17T11:54:57.290Z,3.00
2023-10-17T11:57:26.686Z,2.80
2023-10-17T11:59:59.284Z,2.88
2023-10-17T12:02:31.192Z,2.97
2023-10-17T12:05:02.056Z,2.63
2023-10-17T12:07:32.279Z,3.00
2023-10-17T12:10:05.937Z,2.85
2023-10-17T12:12:36.265Z,2.95
2023-10-17T12:15:05.959Z,2.63
2023-10-17T12:17:34.178Z,2.85
2023-10-17T12:20:10.657Z,2.35
2023-10-17T12:22:39.073Z,2.08
2023-10-17T12:25:08.679Z,2.30
2023-10-17T12:27:36.790Z,2.30
2023-10-17T12:30:09.328Z,2.45
2023-10-17T12:32:37.434Z,2.05
2023-10-17T12:35:14.197Z,2.00
2023-10-17T12:37:45.518Z,2.45
2023-10-17T12:40:20.384Z,2.10
2023-10-17T12:42:48.962Z,2.05
2023-10-17T12:45:18.746Z,2.10
2023-10-17T12:47:47.197Z,1.92
2023-10-17T12:50:19.494Z,2.25
2023-10-17T12:52:47.912Z,2.22
2023-10-17T12:55:16.305Z,2.17
2023-10-17T12:57:45.084Z,2.40
2023-10-17T13:00:16.801Z,1.77
2023-10-17T13:02:45.028Z,1.90
2023-10-17T13:05:14.345Z,1.90
2023-10-17T13:07:44.255Z,2.13
2023-10-17T13:10:13.307Z,1.80
2023-10-17T13:12:41.665Z,1.98
2023-10-17T13:15:14.697Z,1.73
2023-10-17T13:17:42.867Z,2.03
2023-10-17T13:20:26.275Z,2.05
2023-10-17T13:23:04.444Z,1.95
2023-10-17T13:25:37.234Z,1.65
2023-10-17T13:28:05.773Z,2.13
2023-10-17T13:30:34.055Z,1.98
2023-10-17T13:33:02.322Z,2.22
2023-10-17T13:35:31.437Z,2.25
2023-10-17T13:38:01.219Z,2.00
2023-10-17T13:40:33.456Z,1.85
2023-10-17T13:43:02.916Z,2.28
2023-10-17T13:45:31.150Z,2.22
2023-10-17T13:47:59.206Z,2.20
2023-10-17T13:50:27.258Z,2.28
2023-10-17T13:52:55.582Z,1.83
2023-10-17T13:55:28.747Z,2.08
2023-10-17T13:58:02.397Z,1.80
2023-10-17T14:00:43.787Z,2.22
2023-10-17T14:03:13.861Z,2.10
2023-10-17T14:05:44.376Z,2.08
2023-10-17T14:08:14.540Z,2.00
2023-10-17T14:10:44.931Z,2.17
2023-10-17T14:13:13.771Z,2.20
2023-10-17T14:15:42.182Z,2.05
2023-10-17T14:18:15.897Z,2.20
2023-10-17T14:21:05.746Z,2.05
2023-10-17T14:23:46.389Z,2.42
2023-10-17T14:26:16.985Z,2.10
2023-10-17T14:28:45.224Z,1.98
2023-10-17T14:31:13.385Z,1.73
2023-10-17T14:33:42.416Z,2.38
2023-10-17T14:36:10.709Z,2.08
2023-10-17T14:38:38.895Z,1.98
2023-10-17T14:41:10.748Z,2.50
2023-10-17T14:43:44.973Z,2.25
2023-10-17T14:46:13.257Z,2.20
2023-10-17T14:48:42.211Z,2.70
2023-10-17T14:51:13.256Z,2.35
2023-10-17T14:53:51.002Z,2.00
2023-10-17T14:56:22.143Z,2.05
2023-10-17T14:58:52.568Z,1.83
2023-10-17T15:01:20.976Z,2.13
2023-10-17T15:03:49.954Z,1.83
2023-10-17T15:06:18.282Z,2.17
2023-10-17T15:08:46.666Z,1.93
2023-10-17T15:11:14.730Z,2.10
2023-10-17T15:13:43.225Z,1.80
2023-10-17T15:16:21.054Z,2.23
2023-10-17T15:18:52.968Z,2.10
2023-10-17T15:21:22.531Z,1.80
2023-10-17T15:23:52.217Z,2.03
2023-10-17T15:26:22.959Z,2.40
2023-10-17T15:28:51.718Z,2.30
2023-10-17T15:31:21.660Z,2.00
2023-10-17T15:33:50.579Z,2.10
2023-10-17T15:36:28.191Z,2.20
2023-10-17T15:38:57.504Z,3.07
2023-10-17T15:41:27.460Z,2.47
2023-10-17T15:43:55.514Z,2.30
2023-10-17T15:46:25.873Z,2.30
2023-10-17T15:48:55.362Z,2.33
2023-10-17T15:51:24.956Z,2.33
2023-10-17T15:53:53.872Z,2.40
2023-10-17T15:56:29.574Z,2.27
2023-10-17T15:58:58.173Z,2.53
2023-10-17T16:01:27.677Z,2.43
2023-10-17T16:03:56.110Z,2.37
2023-10-17T16:06:24.568Z,2.60
2023-10-17T16:08:52.663Z,2.50
2023-10-17T16:11:21.740Z,2.40
2023-10-17T16:13:49.955Z,2.40
2023-10-17T16:16:19.693Z,2.33
2023-10-17T16:18:49.191Z,3.13
2023-10-17T16:21:19.530Z,2.50
2023-10-17T16:23:51.275Z,2.40
2023-10-17T16:26:19.659Z,2.17
2023-10-17T16:28:48.365Z,2.63
2023-10-17T16:31:17.068Z,2.30
2023-10-17T16:33:45.556Z,2.40
2023-10-17T16:36:15.110Z,2.40
2023-10-17T16:38:47.288Z,2.60
2023-10-17T16:41:16.396Z,2.13
2023-10-17T16:43:44.575Z,2.37
2023-10-17T16:46:13.732Z,2.13
2023-10-17T16:48:42.012Z,2.43
2023-10-17T16:51:10.204Z,2.37
2023-10-17T16:53:39.888Z,2.20
2023-10-17T16:56:10.627Z,2.70
2023-10-17T16:58:39.323Z,2.30
2023-10-17T17:01:08.314Z,2.60
2023-10-17T17:03:37.098Z,2.27
2023-10-17T17:06:07.650Z,2.40
2023-10-17T17:08:36.210Z,2.70
2023-10-17T17:11:10.932Z,2.30
2023-10-17T17:13:39.940Z,2.90
2023-10-17T17:16:10.857Z,2.70
2023-10-17T17:18:47.180Z,2.37
2023-10-17T17:21:15.909Z,2.77
2023-10-17T17:23:43.968Z,2.60
2023-10-17T17:26:18.026Z,2.30
2023-10-17T17:28:46.319Z,2.60
2023-10-17T17:31:14.843Z,2.50
2023-10-17T17:33:43.762Z,2.60
2023-10-17T17:36:12.372Z,3.13
2023-10-17T17:38:41.102Z,3.13
2023-10-17T17:41:09.321Z,3.17
2023-10-17T17:43:38.776Z,2.80
2023-10-17T17:46:07.266Z,2.80
2023-10-17T17:48:36.301Z,3.07
2023-10-17T17:51:04.996Z,3.03
2023-10-17T17:53:33.445Z,2.63
2023-10-17T17:56:02.302Z,2.70
2023-10-17T17:58:31.941Z,3.10
2023-10-17T18:01:01.590Z,2.90
2023-10-17T18:03:29.936Z,2.70
2023-10-17T18:05:58.156Z,2.83
2023-10-17T18:08:27.584Z,2.73
2023-10-17T18:10:56.770Z,2.50
2023-10-17T18:13:24.979Z,3.20
2023-10-17T18:15:54.676Z,2.90
2023-10-17T18:18:24.744Z,3.10
2023-10-17T18:21:07.713Z,2.50
2023-10-17T18:23:38.225Z,2.90
2023-10-17T18:26:07.425Z,3.10
2023-10-17T18:28:35.913Z,2.50
2023-10-17T18:31:10.670Z,2.73
2023-10-17T18:33:42.195Z,2.73
2023-10-17T18:36:11.211Z,2.80
2023-10-17T18:38:40.175Z,3.00
2023-10-17T18:41:09.784Z,3.10
2023-10-17T18:43:38.114Z,3.27
2023-10-17T18:46:06.882Z,3.40
2023-10-17T18:48:35.736Z,3.03
2023-10-17T18:51:06.825Z,3.53
2023-10-17T18:53:34.927Z,3.40
2023-10-17T18:56:03.608Z,2.90
2023-10-17T18:58:35.560Z,3.30
2023-10-17T19:01:14.107Z,3.20
2023-10-17T19:03:44.661Z,2.57
2023-10-17T19:06:15.104Z,3.00
2023-10-17T19:08:43.877Z,3.30
2023-10-17T19:11:13.822Z,2.83
2023-10-17T19:13:42.605Z,3.30
2023-10-17T19:16:16.783Z,3.57
2023-10-17T19:18:45.479Z,3.07
2023-10-17T19:21:16.033Z,3.67
2023-10-17T19:23:50.208Z,3.43
2023-10-17T19:26:20.049Z,3.53
2023-10-17T19:28:48.748Z,3.67
2023-10-17T19:31:18.169Z,3.30
2023-10-17T19:33:46.317Z,3.60
2023-10-17T19:36:15.835Z,3.60
2023-10-17T19:38:44.639Z,3.50
2023-10-17T19:41:13.289Z,3.20
2023-10-17T19:43:41.923Z,4.00
2023-10-17T19:46:10.237Z,3.57
2023-10-17T19:48:38.365Z,3.47
2023-10-17T19:51:08.036Z,3.40
2023-10-17T19:53:39.680Z,3.00
2023-10-17T19:56:08.715Z,3.57
2023-10-17T19:58:36.914Z,3.60
2023-10-17T20:01:08.407Z,3.57
2023-10-17T20:03:37.097Z,3.67
2023-10-17T20:06:06.689Z,3.30
2023-10-17T20:08:34.956Z,3.50
2023-10-17T20:11:05.987Z,3.57
2023-10-17T20:13:34.078Z,4.00
2023-10-17T20:16:02.451Z,3.67
2023-10-17T20:18:31.864Z,3.40
2023-10-17T20:21:00.013Z,3.30
2023-10-17T20:23:28.249Z,4.10
2023-10-17T20:25:56.908Z,3.87
2023-10-17T20:28:26.371Z,3.63
2023-10-17T20:30:54.536Z,3.33
2023-10-17T20:33:22.629Z,3.43
2023-10-17T20:35:50.927Z,3.90
2023-10-17T20:38:18.990Z,3.60
2023-10-17T20:40:47.129Z,3.67
2023-10-17T20:43:15.221Z,3.97
2023-10-17T20:45:45.466Z,3.90
2023-10-17T20:48:13.605Z,3.67
2023-10-17T20:50:42.075Z,4.13
2023-10-17T20:53:10.255Z,3.97
2023-10-17T20:55:38.334Z,3.70
2023-10-17T20:58:06.806Z,4.07
2023-10-17T21:00:36.800Z,3.90
2023-10-17T21:03:06.489Z,3.77
2023-10-17T21:05:36.480Z,4.00
2023-10-17T21:08:05.854Z,3.77
2023-10-17T21:10:38.889Z,3.90
2023-10-17T21:13:07.439Z,4.20
2023-10-17T21:15:36.453Z,4.00
2023-10-17T21:18:06.480Z,3.80
2023-10-17T21:20:34.675Z,3.53
2023-10-17T21:23:02.707Z,3.73
2023-10-17T21:25:31.688Z,3.60
2023-10-17T21:28:00.764Z,3.30
2023-10-17T21:30:29.524Z,3.80
2023-10-17T21:32:58.488Z,3.87
2023-10-17T21:35:27.964Z,4.00
2023-10-17T21:37:58.620Z,3.63
2023-10-17T21:40:28.200Z,4.03
2023-10-17T21:42:57.578Z,3.87
2023-10-17T21:45:25.871Z,3.90
2023-10-17T21:47:55.114Z,4.47
2023-10-17T21:50:24.043Z,4.10
2023-10-17T21:52:53.521Z,4.23
2023-10-17T21:55:21.693Z,4.07
2023-10-17T21:57:49.745Z,3.97
2023-10-17T22:00:30.964Z,4.73
2023-10-17T22:02:59.205Z,4.03
2023-10-17T22:05:28.494Z,4.07
2023-10-17T22:07:58.155Z,4.20
2023-10-17T22:10:27.200Z,4.17
2023-10-17T22:12:55.317Z,4.70
2023-10-17T22:15:23.475Z,4.23
2023-10-17T22:17:51.837Z,4.17
2023-10-17T22:20:20.002Z,4.50
2023-10-17T22:22:49.187Z,4.40
2023-10-17T22:25:18.960Z,4.17
2023-10-17T22:27:48.216Z,4.33
2023-10-17T22:30:18.196Z,4.70
2023-10-17T22:32:46.399Z,4.30
2023-10-17T22:35:14.545Z,4.40
2023-10-17T22:37:42.838Z,4.50
2023-10-17T22:40:14.133Z,4.47
2023-10-17T22:42:44.687Z,4.80
2023-10-17T22:45:13.047Z,4.03
2023-10-17T22:47:41.783Z,4.30
2023-10-17T22:50:11.720Z,4.23
2023-10-17T22:52:39.893Z,4.50
2023-10-17T22:55:11.179Z,4.40
2023-10-17T22:57:42.643Z,4.20
2023-10-17T23:00:16.044Z,4.20
2023-10-17T23:02:47.660Z,4.80
2023-10-17T23:05:18.068Z,5.27
2023-10-17T23:07:47.322Z,4.40
2023-10-17T23:10:16.783Z,4.37
2023-10-17T23:12:45.656Z,4.83
2023-10-17T23:15:15.710Z,4.87
2023-10-17T23:17:46.591Z,5.00
2023-10-17T23:20:16.138Z,5.23
2023-10-17T23:22:45.071Z,4.57
2023-10-17T23:25:13.912Z,4.70
2023-10-17T23:27:42.625Z,4.23
2023-10-17T23:30:13.109Z,4.80
2023-10-17T23:32:42.948Z,4.40
2023-10-17T23:35:11.076Z,4.70
2023-10-17T23:37:40.149Z,4.63
2023-10-17T23:40:10.978Z,4.90
2023-10-17T23:42:39.541Z,4.60
2023-10-17T23:45:08.775Z,4.90
2023-10-17T23:47:38.062Z,4.80
2023-10-17T23:50:16.233Z,4.70
2023-10-17T23:52:44.744Z,4.93
2023-10-17T23:55:14.630Z,4.70
2023-10-17T23:57:47.961Z,5.10
